sensor_id;sensor_type;location;lat;lon;timestamp;P1;durP1;ratioP1;P2;durP2;ratioP2
12412;SDS011;13877;18.896;-99.222;2023-05-14T00:02:09;18.70;;;12.88;;
12412;SDS011;13877;18.896;-99.222;2023-05-14T00:04:37;21.20;;;12.50;;
12412;SDS011;13877;18.896;-99.222;2023-05-14T00:07:03;24.65;;;12.23;;
12412;SDS011;13877;18.896;-99.222;2023-05-14T00:09:31;24.08;;;12.18;;
12412;SDS011;13877;18.896;-99.222;2023-05-14T00:11:59;23.63;;;12.10;;
12412;SDS011;13877;18.896;-99.222;2023-05-14T00:14:27;27.02;;;12.85;;
12412;SDS011;13877;18.896;-99.222;2023-05-14T00:16:53;23.63;;;12.27;;
12412;SDS011;13877;18.896;-99.222;2023-05-14T00:19:21;17.40;;;11.73;;
12412;SDS011;13877;18.896;-99.222;2023-05-14T00:21:47;19.35;;;12.02;;
12412;SDS011;13877;18.896;-99.222;2023-05-14T00:24:14;29.65;;;12.18;;
12412;SDS011;13877;18.896;-99.222;2023-05-14T00:26:41;20.70;;;12.50;;
12412;SDS011;13877;18.896;-99.222;2023-05-14T00:29:08;19.00;;;11.25;;
12412;SDS011;13877;18.896;-99.222;2023-05-14T00:31:35;24.90;;;12.15;;
12412;SDS011;13877;18.896;-99.222;2023-05-14T00:34:02;18.90;;;10.45;;
12412;SDS011;13877;18.896;-99.222;2023-05-14T00:36:29;21.65;;;10.57;;
12412;SDS011;13877;18.896;-99.222;2023-05-14T00:38:56;19.48;;;10.38;;
12412;SDS011;13877;18.896;-99.222;2023-05-14T00:41:23;19.27;;;10.77;;
12412;SDS011;13877;18.896;-99.222;2023-05-14T00:43:50;21.67;;;11.18;;
12412;SDS011;13877;18.896;-99.222;2023-05-14T00:46:17;25.42;;;11.80;;
12412;SDS011;13877;18.896;-99.222;2023-05-14T00:48:45;22.27;;;10.57;;
12412;SDS011;13877;18.896;-99.222;2023-05-14T00:51:11;23.17;;;11.18;;
12412;SDS011;13877;18.896;-99.222;2023-05-14T00:53:41;24.55;;;11.07;;
12412;SDS011;13877;18.896;-99.222;2023-05-14T00:56:08;19.58;;;10.32;;
12412;SDS011;13877;18.896;-99.222;2023-05-14T00:58:35;17.17;;;10.43;;
12412;SDS011;13877;18.896;-99.222;2023-05-14T01:01:02;15.57;;;10.27;;
12412;SDS011;13877;18.896;-99.222;2023-05-14T01:03:32;21.00;;;11.88;;
12412;SDS011;13877;18.896;-99.222;2023-05-14T01:14:14;26.58;;;12.13;;
12412;SDS011;13877;18.896;-99.222;2023-05-14T01:17:07;21.58;;;11.65;;
12412;SDS011;13877;18.896;-99.222;2023-05-14T01:19:41;18.92;;;10.25;;
12412;SDS011;13877;18.896;-99.222;2023-05-14T01:22:09;20.13;;;11.10;;
12412;SDS011;13877;18.896;-99.222;2023-05-14T01:24:37;20.08;;;11.27;;
12412;SDS011;13877;18.896;-99.222;2023-05-14T01:27:20;21.88;;;11.68;;
12412;SDS011;13877;18.896;-99.222;2023-05-14T01:32:31;24.85;;;11.63;;
12412;SDS011;13877;18.896;-99.222;2023-05-14T01:34:59;21.88;;;11.30;;
12412;SDS011;13877;18.896;-99.222;2023-05-14T01:37:26;24.55;;;12.93;;
12412;SDS011;13877;18.896;-99.222;2023-05-14T01:39:56;26.63;;;11.88;;
12412;SDS011;13877;18.896;-99.222;2023-05-14T01:42:23;20.80;;;12.02;;
12412;SDS011;13877;18.896;-99.222;2023-05-14T01:44:51;23.13;;;11.80;;
12412;SDS011;13877;18.896;-99.222;2023-05-14T01:47:18;28.95;;;14.55;;
12412;SDS011;13877;18.896;-99.222;2023-05-14T01:49:45;33.72;;;17.13;;
12412;SDS011;13877;18.896;-99.222;2023-05-14T01:52:12;35.15;;;17.08;;
12412;SDS011;13877;18.896;-99.222;2023-05-14T01:54:39;36.90;;;18.30;;
12412;SDS011;13877;18.896;-99.222;2023-05-14T01:57:05;29.23;;;16.77;;
12412;SDS011;13877;18.896;-99.222;2023-05-14T01:59:32;33.10;;;17.92;;
12412;SDS011;13877;18.896;-99.222;2023-05-14T02:01:59;30.98;;;17.23;;
12412;SDS011;13877;18.896;-99.222;2023-05-14T02:04:26;37.15;;;17.52;;
12412;SDS011;13877;18.896;-99.222;2023-05-14T02:06:53;36.80;;;17.30;;
12412;SDS011;13877;18.896;-99.222;2023-05-14T02:09:23;43.45;;;18.98;;
12412;SDS011;13877;18.896;-99.222;2023-05-14T02:11:50;30.65;;;17.73;;
12412;SDS011;13877;18.896;-99.222;2023-05-14T02:14:17;39.05;;;18.60;;
12412;SDS011;13877;18.896;-99.222;2023-05-14T02:16:44;36.45;;;18.27;;
12412;SDS011;13877;18.896;-99.222;2023-05-14T02:19:11;35.85;;;17.63;;
12412;SDS011;13877;18.896;-99.222;2023-05-14T02:21:38;33.13;;;19.27;;
12412;SDS011;13877;18.896;-99.222;2023-05-14T02:24:05;35.20;;;18.55;;
12412;SDS011;13877;18.896;-99.222;2023-05-14T02:26:32;34.10;;;18.05;;
12412;SDS011;13877;18.896;-99.222;2023-05-14T02:28:59;35.13;;;17.90;;
12412;SDS011;13877;18.896;-99.222;2023-05-14T02:31:26;43.28;;;17.80;;
12412;SDS011;13877;18.896;-99.222;2023-05-14T02:33:53;28.50;;;16.85;;
12412;SDS011;13877;18.896;-99.222;2023-05-14T02:36:21;27.95;;;15.02;;
12412;SDS011;13877;18.896;-99.222;2023-05-14T02:38:49;31.02;;;15.75;;
12412;SDS011;13877;18.896;-99.222;2023-05-14T02:41:15;28.70;;;15.88;;
12412;SDS011;13877;18.896;-99.222;2023-05-14T02:43:43;24.27;;;14.95;;
12412;SDS011;13877;18.896;-99.222;2023-05-14T02:46:09;31.52;;;14.45;;
12412;SDS011;13877;18.896;-99.222;2023-05-14T02:48:37;22.92;;;14.38;;
12412;SDS011;13877;18.896;-99.222;2023-05-14T02:51:05;26.73;;;14.18;;
12412;SDS011;13877;18.896;-99.222;2023-05-14T02:53:33;26.05;;;15.23;;
12412;SDS011;13877;18.896;-99.222;2023-05-14T02:56:00;24.00;;;14.55;;
12412;SDS011;13877;18.896;-99.222;2023-05-14T02:58:27;26.27;;;13.20;;
12412;SDS011;13877;18.896;-99.222;2023-05-14T03:00:54;23.70;;;13.40;;
12412;SDS011;13877;18.896;-99.222;2023-05-14T03:03:22;26.48;;;14.20;;
12412;SDS011;13877;18.896;-99.222;2023-05-14T03:05:49;25.83;;;13.65;;
12412;SDS011;13877;18.896;-99.222;2023-05-14T03:08:17;23.60;;;14.30;;
12412;SDS011;13877;18.896;-99.222;2023-05-14T03:10:44;35.13;;;15.00;;
12412;SDS011;13877;18.896;-99.222;2023-05-14T03:13:11;26.02;;;14.05;;
12412;SDS011;13877;18.896;-99.222;2023-05-14T03:15:42;26.35;;;14.15;;
12412;SDS011;13877;18.896;-99.222;2023-05-14T03:18:09;31.48;;;14.70;;
12412;SDS011;13877;18.896;-99.222;2023-05-14T03:20:36;23.90;;;13.55;;
12412;SDS011;13877;18.896;-99.222;2023-05-14T03:23:04;26.60;;;13.65;;
12412;SDS011;13877;18.896;-99.222;2023-05-14T03:25:31;22.25;;;13.45;;
12412;SDS011;13877;18.896;-99.222;2023-05-14T03:27:59;26.40;;;13.73;;
12412;SDS011;13877;18.896;-99.222;2023-05-14T03:30:26;23.92;;;13.30;;
12412;SDS011;13877;18.896;-99.222;2023-05-14T03:32:53;30.25;;;14.27;;
12412;SDS011;13877;18.896;-99.222;2023-05-14T03:35:20;24.63;;;12.93;;
12412;SDS011;13877;18.896;-99.222;2023-05-14T03:37:47;26.67;;;14.10;;
12412;SDS011;13877;18.896;-99.222;2023-05-14T03:40:15;24.15;;;13.90;;
12412;SDS011;13877;18.896;-99.222;2023-05-14T03:42:42;27.40;;;14.02;;
12412;SDS011;13877;18.896;-99.222;2023-05-14T03:45:09;24.60;;;13.15;;
12412;SDS011;13877;18.896;-99.222;2023-05-14T03:47:42;29.00;;;15.27;;
12412;SDS011;13877;18.896;-99.222;2023-05-14T03:50:08;25.08;;;13.93;;
12412;SDS011;13877;18.896;-99.222;2023-05-14T03:52:35;31.25;;;14.50;;
12412;SDS011;13877;18.896;-99.222;2023-05-14T03:55:02;26.05;;;14.50;;
12412;SDS011;13877;18.896;-99.222;2023-05-14T03:57:30;25.30;;;13.80;;
12412;SDS011;13877;18.896;-99.222;2023-05-14T03:59:56;25.83;;;14.18;;
12412;SDS011;13877;18.896;-99.222;2023-05-14T04:02:23;23.63;;;14.82;;
12412;SDS011;13877;18.896;-99.222;2023-05-14T04:04:50;24.58;;;14.48;;
12412;SDS011;13877;18.896;-99.222;2023-05-14T04:07:19;22.13;;;14.27;;
12412;SDS011;13877;18.896;-99.222;2023-05-14T04:09:46;28.38;;;13.73;;
12412;SDS011;13877;18.896;-99.222;2023-05-14T04:12:12;27.10;;;14.75;;
12412;SDS011;13877;18.896;-99.222;2023-05-14T04:14:39;24.75;;;13.52;;
12412;SDS011;13877;18.896;-99.222;2023-05-14T04:17:06;23.98;;;13.75;;
12412;SDS011;13877;18.896;-99.222;2023-05-14T04:19:33;23.58;;;14.60;;
12412;SDS011;13877;18.896;-99.222;2023-05-14T04:22:01;22.55;;;13.02;;
12412;SDS011;13877;18.896;-99.222;2023-05-14T04:24:29;23.15;;;13.43;;
12412;SDS011;13877;18.896;-99.222;2023-05-14T04:26:55;26.02;;;13.05;;
12412;SDS011;13877;18.896;-99.222;2023-05-14T04:29:23;30.02;;;13.10;;
12412;SDS011;13877;18.896;-99.222;2023-05-14T04:31:50;24.70;;;14.05;;
12412;SDS011;13877;18.896;-99.222;2023-05-14T04:34:17;26.80;;;13.50;;
12412;SDS011;13877;18.896;-99.222;2023-05-14T04:36:43;25.23;;;13.13;;
12412;SDS011;13877;18.896;-99.222;2023-05-14T04:39:11;27.27;;;13.85;;
12412;SDS011;13877;18.896;-99.222;2023-05-14T04:41:38;25.08;;;13.45;;
12412;SDS011;13877;18.896;-99.222;2023-05-14T04:44:05;25.52;;;13.93;;
12412;SDS011;13877;18.896;-99.222;2023-05-14T04:46:32;24.45;;;14.35;;
12412;SDS011;13877;18.896;-99.222;2023-05-14T04:48:59;27.02;;;16.10;;
12412;SDS011;13877;18.896;-99.222;2023-05-14T04:51:26;31.30;;;15.80;;
12412;SDS011;13877;18.896;-99.222;2023-05-14T04:53:53;31.75;;;14.52;;
12412;SDS011;13877;18.896;-99.222;2023-05-14T04:56:20;26.33;;;15.18;;
12412;SDS011;13877;18.896;-99.222;2023-05-14T04:58:47;34.30;;;15.25;;
12412;SDS011;13877;18.896;-99.222;2023-05-14T05:01:13;34.95;;;14.75;;
12412;SDS011;13877;18.896;-99.222;2023-05-14T05:03:40;25.55;;;13.60;;
12412;SDS011;13877;18.896;-99.222;2023-05-14T05:06:07;30.48;;;14.30;;
12412;SDS011;13877;18.896;-99.222;2023-05-14T05:08:35;25.50;;;14.10;;
12412;SDS011;13877;18.896;-99.222;2023-05-14T05:11:02;26.20;;;14.45;;
12412;SDS011;13877;18.896;-99.222;2023-05-14T05:13:30;27.45;;;14.07;;
12412;SDS011;13877;18.896;-99.222;2023-05-14T05:15:57;25.27;;;13.70;;
12412;SDS011;13877;18.896;-99.222;2023-05-14T05:18:24;26.38;;;13.90;;
12412;SDS011;13877;18.896;-99.222;2023-05-14T05:20:51;28.20;;;13.90;;
12412;SDS011;13877;18.896;-99.222;2023-05-14T05:23:18;27.85;;;13.07;;
12412;SDS011;13877;18.896;-99.222;2023-05-14T05:25:45;23.02;;;13.10;;
12412;SDS011;13877;18.896;-99.222;2023-05-14T05:28:12;28.90;;;15.27;;
12412;SDS011;13877;18.896;-99.222;2023-05-14T05:30:39;30.73;;;14.00;;
12412;SDS011;13877;18.896;-99.222;2023-05-14T05:33:06;28.38;;;14.20;;
12412;SDS011;13877;18.896;-99.222;2023-05-14T05:35:33;24.83;;;13.23;;
12412;SDS011;13877;18.896;-99.222;2023-05-14T05:38:02;30.45;;;13.95;;
12412;SDS011;13877;18.896;-99.222;2023-05-14T05:40:29;22.75;;;14.15;;
12412;SDS011;13877;18.896;-99.222;2023-05-14T05:42:56;23.83;;;13.02;;
12412;SDS011;13877;18.896;-99.222;2023-05-14T05:45:23;29.00;;;14.65;;
12412;SDS011;13877;18.896;-99.222;2023-05-14T05:47:50;25.27;;;13.95;;
12412;SDS011;13877;18.896;-99.222;2023-05-14T05:50:16;34.20;;;15.27;;
12412;SDS011;13877;18.896;-99.222;2023-05-14T05:52:43;26.60;;;14.40;;
12412;SDS011;13877;18.896;-99.222;2023-05-14T05:55:10;26.83;;;14.57;;
12412;SDS011;13877;18.896;-99.222;2023-05-14T05:57:37;26.65;;;14.57;;
12412;SDS011;13877;18.896;-99.222;2023-05-14T06:00:04;34.95;;;14.52;;
12412;SDS011;13877;18.896;-99.222;2023-05-14T06:02:38;27.67;;;14.82;;
12412;SDS011;13877;18.896;-99.222;2023-05-14T06:05:06;29.45;;;14.73;;
12412;SDS011;13877;18.896;-99.222;2023-05-14T06:07:34;27.90;;;14.32;;
12412;SDS011;13877;18.896;-99.222;2023-05-14T06:10:03;29.95;;;13.82;;
12412;SDS011;13877;18.896;-99.222;2023-05-14T06:12:31;27.40;;;14.15;;
12412;SDS011;13877;18.896;-99.222;2023-05-14T06:14:58;32.95;;;15.23;;
12412;SDS011;13877;18.896;-99.222;2023-05-14T06:17:24;29.27;;;14.45;;
12412;SDS011;13877;18.896;-99.222;2023-05-14T06:19:54;33.50;;;14.10;;
12412;SDS011;13877;18.896;-99.222;2023-05-14T06:22:21;42.78;;;15.18;;
12412;SDS011;13877;18.896;-99.222;2023-05-14T06:24:48;38.65;;;14.70;;
12412;SDS011;13877;18.896;-99.222;2023-05-14T06:27:15;26.25;;;13.75;;
12412;SDS011;13877;18.896;-99.222;2023-05-14T06:29:42;36.00;;;14.02;;
12412;SDS011;13877;18.896;-99.222;2023-05-14T06:32:09;28.05;;;14.27;;
12412;SDS011;13877;18.896;-99.222;2023-05-14T06:34:38;32.53;;;14.65;;
12412;SDS011;13877;18.896;-99.222;2023-05-14T06:37:05;25.42;;;14.00;;
12412;SDS011;13877;18.896;-99.222;2023-05-14T06:39:34;28.90;;;13.88;;
12412;SDS011;13877;18.896;-99.222;2023-05-14T06:42:02;35.38;;;13.88;;
12412;SDS011;13877;18.896;-99.222;2023-05-14T06:44:30;26.45;;;14.98;;
12412;SDS011;13877;18.896;-99.222;2023-05-14T06:46:57;25.33;;;14.38;;
12412;SDS011;13877;18.896;-99.222;2023-05-14T06:49:23;32.10;;;13.32;;
12412;SDS011;13877;18.896;-99.222;2023-05-14T06:51:51;33.72;;;13.82;;
12412;SDS011;13877;18.896;-99.222;2023-05-14T06:54:18;26.42;;;13.52;;
12412;SDS011;13877;18.896;-99.222;2023-05-14T06:56:45;33.25;;;13.48;;
12412;SDS011;13877;18.896;-99.222;2023-05-14T06:59:12;29.05;;;12.70;;
12412;SDS011;13877;18.896;-99.222;2023-05-14T07:01:39;27.50;;;13.18;;
12412;SDS011;13877;18.896;-99.222;2023-05-14T07:04:06;35.63;;;13.60;;
12412;SDS011;13877;18.896;-99.222;2023-05-14T07:06:33;26.05;;;12.05;;
12412;SDS011;13877;18.896;-99.222;2023-05-14T07:09:00;26.23;;;13.05;;
12412;SDS011;13877;18.896;-99.222;2023-05-14T07:11:28;25.55;;;13.10;;
12412;SDS011;13877;18.896;-99.222;2023-05-14T07:13:55;28.77;;;12.68;;
12412;SDS011;13877;18.896;-99.222;2023-05-14T07:16:22;32.47;;;12.77;;
12412;SDS011;13877;18.896;-99.222;2023-05-14T07:18:48;23.13;;;11.90;;
12412;SDS011;13877;18.896;-99.222;2023-05-14T07:21:16;27.17;;;11.90;;
12412;SDS011;13877;18.896;-99.222;2023-05-14T07:23:42;24.13;;;12.73;;
12412;SDS011;13877;18.896;-99.222;2023-05-14T07:26:10;22.15;;;12.25;;
12412;SDS011;13877;18.896;-99.222;2023-05-14T07:28:36;25.27;;;12.85;;
12412;SDS011;13877;18.896;-99.222;2023-05-14T07:31:03;24.40;;;12.20;;
12412;SDS011;13877;18.896;-99.222;2023-05-14T07:33:34;24.48;;;11.93;;
12412;SDS011;13877;18.896;-99.222;2023-05-14T07:36:01;28.92;;;12.35;;
12412;SDS011;13877;18.896;-99.222;2023-05-14T07:38:28;19.45;;;11.82;;
12412;SDS011;13877;18.896;-99.222;2023-05-14T07:40:56;25.17;;;10.82;;
12412;SDS011;13877;18.896;-99.222;2023-05-14T07:43:23;26.85;;;11.73;;
12412;SDS011;13877;18.896;-99.222;2023-05-14T07:45:50;22.27;;;11.70;;
12412;SDS011;13877;18.896;-99.222;2023-05-14T07:48:16;23.77;;;12.02;;
12412;SDS011;13877;18.896;-99.222;2023-05-14T07:50:43;21.42;;;11.65;;
12412;SDS011;13877;18.896;-99.222;2023-05-14T07:53:10;21.60;;;11.25;;
12412;SDS011;13877;18.896;-99.222;2023-05-14T07:55:37;29.08;;;12.93;;
12412;SDS011;13877;18.896;-99.222;2023-05-14T07:58:04;23.90;;;11.30;;
12412;SDS011;13877;18.896;-99.222;2023-05-14T08:00:31;29.10;;;11.52;;
12412;SDS011;13877;18.896;-99.222;2023-05-14T08:02:58;25.88;;;12.18;;
12412;SDS011;13877;18.896;-99.222;2023-05-14T08:05:25;33.22;;;13.88;;
12412;SDS011;13877;18.896;-99.222;2023-05-14T08:07:52;26.35;;;13.45;;
12412;SDS011;13877;18.896;-99.222;2023-05-14T08:10:19;30.17;;;13.23;;
12412;SDS011;13877;18.896;-99.222;2023-05-14T08:12:46;25.65;;;13.80;;
12412;SDS011;13877;18.896;-99.222;2023-05-14T08:15:13;24.27;;;12.77;;
12412;SDS011;13877;18.896;-99.222;2023-05-14T08:17:39;23.08;;;12.57;;
12412;SDS011;13877;18.896;-99.222;2023-05-14T08:20:07;24.67;;;13.35;;
12412;SDS011;13877;18.896;-99.222;2023-05-14T08:22:36;31.27;;;14.75;;
12412;SDS011;13877;18.896;-99.222;2023-05-14T08:25:04;25.25;;;14.00;;
12412;SDS011;13877;18.896;-99.222;2023-05-14T08:27:31;28.48;;;13.85;;
12412;SDS011;13877;18.896;-99.222;2023-05-14T08:29:58;24.05;;;13.57;;
12412;SDS011;13877;18.896;-99.222;2023-05-14T08:32:25;30.95;;;13.55;;
12412;SDS011;13877;18.896;-99.222;2023-05-14T08:34:52;28.58;;;12.98;;
12412;SDS011;13877;18.896;-99.222;2023-05-14T08:37:18;26.02;;;13.07;;
12412;SDS011;13877;18.896;-99.222;2023-05-14T08:39:45;30.27;;;12.68;;
12412;SDS011;13877;18.896;-99.222;2023-05-14T08:42:12;21.33;;;11.63;;
12412;SDS011;13877;18.896;-99.222;2023-05-14T08:47:22;22.90;;;12.10;;
12412;SDS011;13877;18.896;-99.222;2023-05-14T08:49:52;22.85;;;11.60;;
12412;SDS011;13877;18.896;-99.222;2023-05-14T08:52:26;35.08;;;12.10;;
12412;SDS011;13877;18.896;-99.222;2023-05-14T08:54:53;23.60;;;12.60;;
12412;SDS011;13877;18.896;-99.222;2023-05-14T08:57:22;19.23;;;11.68;;
12412;SDS011;13877;18.896;-99.222;2023-05-14T08:59:54;23.83;;;12.30;;
12412;SDS011;13877;18.896;-99.222;2023-05-14T09:02:25;21.63;;;11.73;;
12412;SDS011;13877;18.896;-99.222;2023-05-14T09:04:55;23.25;;;11.90;;
12412;SDS011;13877;18.896;-99.222;2023-05-14T09:07:23;18.92;;;11.65;;
12412;SDS011;13877;18.896;-99.222;2023-05-14T09:09:51;29.77;;;11.75;;
12412;SDS011;13877;18.896;-99.222;2023-05-14T09:12:19;21.27;;;10.73;;
12412;SDS011;13877;18.896;-99.222;2023-05-14T09:14:47;22.55;;;11.70;;
12412;SDS011;13877;18.896;-99.222;2023-05-14T09:17:15;24.42;;;12.18;;
12412;SDS011;13877;18.896;-99.222;2023-05-14T09:19:43;22.23;;;11.82;;
12412;SDS011;13877;18.896;-99.222;2023-05-14T09:22:15;24.10;;;12.00;;
12412;SDS011;13877;18.896;-99.222;2023-05-14T09:24:42;26.55;;;12.32;;
12412;SDS011;13877;18.896;-99.222;2023-05-14T09:27:19;23.45;;;11.20;;
12412;SDS011;13877;18.896;-99.222;2023-05-14T09:29:46;27.85;;;12.13;;
12412;SDS011;13877;18.896;-99.222;2023-05-14T09:32:13;23.65;;;11.80;;
12412;SDS011;13877;18.896;-99.222;2023-05-14T09:34:43;27.25;;;10.95;;
12412;SDS011;13877;18.896;-99.222;2023-05-14T09:37:09;23.45;;;12.82;;
12412;SDS011;13877;18.896;-99.222;2023-05-14T09:39:37;18.80;;;11.43;;
12412;SDS011;13877;18.896;-99.222;2023-05-14T09:42:04;21.35;;;11.75;;
12412;SDS011;13877;18.896;-99.222;2023-05-14T09:44:31;20.65;;;11.25;;
12412;SDS011;13877;18.896;-99.222;2023-05-14T09:47:00;18.88;;;10.43;;
12412;SDS011;13877;18.896;-99.222;2023-05-14T09:49:27;24.15;;;11.52;;
12412;SDS011;13877;18.896;-99.222;2023-05-14T09:51:54;22.38;;;11.07;;
12412;SDS011;13877;18.896;-99.222;2023-05-14T09:54:22;24.75;;;11.35;;
12412;SDS011;13877;18.896;-99.222;2023-05-14T09:56:52;24.67;;;10.52;;
12412;SDS011;13877;18.896;-99.222;2023-05-14T09:59:19;26.30;;;11.48;;
12412;SDS011;13877;18.896;-99.222;2023-05-14T10:01:45;22.48;;;11.10;;
12412;SDS011;13877;18.896;-99.222;2023-05-14T10:04:13;18.77;;;11.15;;
12412;SDS011;13877;18.896;-99.222;2023-05-14T10:06:40;25.92;;;11.40;;
12412;SDS011;13877;18.896;-99.222;2023-05-14T10:09:11;18.75;;;10.70;;
12412;SDS011;13877;18.896;-99.222;2023-05-14T10:11:41;19.08;;;11.43;;
12412;SDS011;13877;18.896;-99.222;2023-05-14T10:14:13;21.70;;;11.57;;
12412;SDS011;13877;18.896;-99.222;2023-05-14T10:16:52;17.05;;;11.00;;
12412;SDS011;13877;18.896;-99.222;2023-05-14T10:19:22;17.75;;;10.57;;
12412;SDS011;13877;18.896;-99.222;2023-05-14T10:21:58;23.55;;;11.32;;
12412;SDS011;13877;18.896;-99.222;2023-05-14T10:24:32;21.77;;;11.35;;
12412;SDS011;13877;18.896;-99.222;2023-05-14T10:27:00;25.40;;;11.20;;
12412;SDS011;13877;18.896;-99.222;2023-05-14T10:29:34;36.38;;;11.15;;
12412;SDS011;13877;18.896;-99.222;2023-05-14T10:32:03;30.10;;;11.45;;
12412;SDS011;13877;18.896;-99.222;2023-05-14T10:37:24;19.48;;;10.82;;
12412;SDS011;13877;18.896;-99.222;2023-05-14T10:39:53;24.83;;;11.82;;
12412;SDS011;13877;18.896;-99.222;2023-05-14T10:42:31;17.92;;;11.05;;
12412;SDS011;13877;18.896;-99.222;2023-05-14T10:45:02;22.15;;;10.75;;
12412;SDS011;13877;18.896;-99.222;2023-05-14T10:50:06;24.55;;;11.82;;
12412;SDS011;13877;18.896;-99.222;2023-05-14T10:52:35;20.10;;;9.93;;
12412;SDS011;13877;18.896;-99.222;2023-05-14T10:55:03;21.38;;;10.60;;
12412;SDS011;13877;18.896;-99.222;2023-05-14T10:57:36;22.05;;;11.35;;
12412;SDS011;13877;18.896;-99.222;2023-05-14T11:00:04;21.27;;;11.07;;
12412;SDS011;13877;18.896;-99.222;2023-05-14T11:02:34;29.08;;;11.20;;
12412;SDS011;13877;18.896;-99.222;2023-05-14T11:05:15;23.77;;;11.85;;
12412;SDS011;13877;18.896;-99.222;2023-05-14T11:07:46;26.60;;;11.57;;
12412;SDS011;13877;18.896;-99.222;2023-05-14T11:10:15;19.55;;;10.45;;
12412;SDS011;13877;18.896;-99.222;2023-05-14T11:12:45;22.02;;;10.85;;
12412;SDS011;13877;18.896;-99.222;2023-05-14T11:15:14;20.65;;;10.63;;
12412;SDS011;13877;18.896;-99.222;2023-05-14T11:17:43;19.15;;;10.80;;
12412;SDS011;13877;18.896;-99.222;2023-05-14T11:20:11;27.67;;;10.57;;
12412;SDS011;13877;18.896;-99.222;2023-05-14T11:22:39;20.27;;;11.38;;
12412;SDS011;13877;18.896;-99.222;2023-05-14T11:25:07;25.70;;;11.40;;
12412;SDS011;13877;18.896;-99.222;2023-05-14T11:27:36;22.70;;;10.98;;
12412;SDS011;13877;18.896;-99.222;2023-05-14T11:30:04;23.70;;;10.65;;
12412;SDS011;13877;18.896;-99.222;2023-05-14T11:32:42;21.13;;;11.05;;
12412;SDS011;13877;18.896;-99.222;2023-05-14T11:35:11;25.38;;;11.73;;
12412;SDS011;13877;18.896;-99.222;2023-05-14T11:37:38;29.40;;;12.82;;
12412;SDS011;13877;18.896;-99.222;2023-05-14T11:40:12;32.10;;;12.57;;
12412;SDS011;13877;18.896;-99.222;2023-05-14T11:42:41;27.30;;;12.10;;
12412;SDS011;13877;18.896;-99.222;2023-05-14T11:45:09;23.27;;;11.32;;
12412;SDS011;13877;18.896;-99.222;2023-05-14T11:47:37;21.85;;;11.35;;
12412;SDS011;13877;18.896;-99.222;2023-05-14T11:50:06;27.13;;;11.35;;
12412;SDS011;13877;18.896;-99.222;2023-05-14T11:52:39;26.73;;;12.65;;
12412;SDS011;13877;18.896;-99.222;2023-05-14T11:55:10;28.65;;;11.80;;
12412;SDS011;13877;18.896;-99.222;2023-05-14T11:57:37;20.15;;;11.25;;
12412;SDS011;13877;18.896;-99.222;2023-05-14T12:00:09;25.30;;;12.30;;
12412;SDS011;13877;18.896;-99.222;2023-05-14T12:02:46;22.35;;;11.68;;
12412;SDS011;13877;18.896;-99.222;2023-05-14T12:05:17;21.80;;;11.63;;
12412;SDS011;13877;18.896;-99.222;2023-05-14T12:07:44;25.63;;;12.25;;
12412;SDS011;13877;18.896;-99.222;2023-05-14T12:10:12;23.73;;;12.30;;
12412;SDS011;13877;18.896;-99.222;2023-05-14T12:12:39;22.65;;;12.32;;
12412;SDS011;13877;18.896;-99.222;2023-05-14T12:15:13;24.57;;;12.53;;
12412;SDS011;13877;18.896;-99.222;2023-05-14T12:17:50;21.17;;;12.07;;
12412;SDS011;13877;18.896;-99.222;2023-05-14T12:20:17;25.35;;;11.90;;
12412;SDS011;13877;18.896;-99.222;2023-05-14T12:22:44;21.73;;;11.05;;
12412;SDS011;13877;18.896;-99.222;2023-05-14T12:25:11;22.02;;;11.77;;
12412;SDS011;13877;18.896;-99.222;2023-05-14T12:27:39;28.45;;;12.70;;
12412;SDS011;13877;18.896;-99.222;2023-05-14T12:30:06;24.38;;;12.23;;
12412;SDS011;13877;18.896;-99.222;2023-05-14T12:32:37;23.13;;;12.10;;
12412;SDS011;13877;18.896;-99.222;2023-05-14T12:35:08;23.23;;;12.15;;
12412;SDS011;13877;18.896;-99.222;2023-05-14T12:37:34;22.90;;;11.02;;
12412;SDS011;13877;18.896;-99.222;2023-05-14T12:40:04;23.70;;;10.82;;
12412;SDS011;13877;18.896;-99.222;2023-05-14T12:42:34;29.70;;;11.27;;
12412;SDS011;13877;18.896;-99.222;2023-05-14T12:45:01;22.20;;;11.20;;
12412;SDS011;13877;18.896;-99.222;2023-05-14T12:47:31;19.65;;;10.75;;
12412;SDS011;13877;18.896;-99.222;2023-05-14T12:49:58;21.77;;;10.35;;
12412;SDS011;13877;18.896;-99.222;2023-05-14T12:52:25;17.88;;;10.70;;
12412;SDS011;13877;18.896;-99.222;2023-05-14T12:54:52;27.27;;;11.07;;
12412;SDS011;13877;18.896;-99.222;2023-05-14T12:57:18;19.27;;;10.23;;
12412;SDS011;13877;18.896;-99.222;2023-05-14T12:59:45;19.60;;;10.35;;
12412;SDS011;13877;18.896;-99.222;2023-05-14T13:02:12;18.58;;;10.90;;
12412;SDS011;13877;18.896;-99.222;2023-05-14T13:04:40;20.35;;;9.63;;
12412;SDS011;13877;18.896;-99.222;2023-05-14T13:07:07;20.33;;;10.80;;
12412;SDS011;13877;18.896;-99.222;2023-05-14T13:09:34;18.27;;;9.82;;
12412;SDS011;13877;18.896;-99.222;2023-05-14T13:12:01;19.73;;;10.23;;
12412;SDS011;13877;18.896;-99.222;2023-05-14T13:14:28;16.20;;;9.48;;
12412;SDS011;13877;18.896;-99.222;2023-05-14T13:16:58;16.35;;;9.55;;
12412;SDS011;13877;18.896;-99.222;2023-05-14T13:19:25;25.38;;;10.00;;
12412;SDS011;13877;18.896;-99.222;2023-05-14T13:21:53;28.83;;;10.13;;
12412;SDS011;13877;18.896;-99.222;2023-05-14T13:24:20;23.70;;;9.32;;
12412;SDS011;13877;18.896;-99.222;2023-05-14T13:26:49;14.93;;;9.02;;
12412;SDS011;13877;18.896;-99.222;2023-05-14T13:29:16;19.63;;;9.50;;
12412;SDS011;13877;18.896;-99.222;2023-05-14T13:31:43;25.98;;;10.23;;
12412;SDS011;13877;18.896;-99.222;2023-05-14T13:34:10;15.75;;;9.75;;
12412;SDS011;13877;18.896;-99.222;2023-05-14T13:36:38;21.40;;;9.60;;
12412;SDS011;13877;18.896;-99.222;2023-05-14T13:39:05;20.08;;;9.52;;
12412;SDS011;13877;18.896;-99.222;2023-05-14T13:41:33;26.42;;;10.18;;
12412;SDS011;13877;18.896;-99.222;2023-05-14T13:44:00;26.58;;;10.00;;
12412;SDS011;13877;18.896;-99.222;2023-05-14T13:46:27;16.02;;;9.07;;
12412;SDS011;13877;18.896;-99.222;2023-05-14T13:48:54;15.20;;;9.20;;
12412;SDS011;13877;18.896;-99.222;2023-05-14T13:51:21;19.10;;;9.75;;
12412;SDS011;13877;18.896;-99.222;2023-05-14T13:53:48;14.23;;;8.23;;
12412;SDS011;13877;18.896;-99.222;2023-05-14T13:56:15;17.63;;;9.48;;
12412;SDS011;13877;18.896;-99.222;2023-05-14T13:58:42;23.10;;;9.95;;
12412;SDS011;13877;18.896;-99.222;2023-05-14T14:01:09;20.23;;;8.88;;
12412;SDS011;13877;18.896;-99.222;2023-05-14T14:03:35;17.75;;;8.60;;
12412;SDS011;13877;18.896;-99.222;2023-05-14T14:06:02;18.02;;;9.48;;
12412;SDS011;13877;18.896;-99.222;2023-05-14T14:08:29;27.58;;;11.48;;
12412;SDS011;13877;18.896;-99.222;2023-05-14T14:10:56;25.40;;;10.65;;
12412;SDS011;13877;18.896;-99.222;2023-05-14T14:13:23;28.45;;;10.73;;
12412;SDS011;13877;18.896;-99.222;2023-05-14T14:15:50;20.38;;;9.43;;
12412;SDS011;13877;18.896;-99.222;2023-05-14T14:18:17;21.02;;;9.73;;
12412;SDS011;13877;18.896;-99.222;2023-05-14T14:20:44;20.13;;;9.63;;
12412;SDS011;13877;18.896;-99.222;2023-05-14T14:23:11;16.30;;;9.18;;